sensor_id;sensor_type;location;lat;lon;timestamp;P1;durP1;ratioP1;P2;durP2;ratioP2
48621;SDS011;34421;48.944;9.460;2022-08-03T00:01:40;1.83;;;1.20;;
48621;SDS011;34421;48.944;9.460;2022-08-03T00:04:06;2.47;;;1.13;;
48621;SDS011;34421;48.944;9.460;2022-08-03T00:06:32;3.42;;;1.25;;
48621;SDS011;34421;48.944;9.460;2022-08-03T00:08:58;1.77;;;1.15;;
48621;SDS011;34421;48.944;9.460;2022-08-03T00:11:24;1.40;;;1.13;;
48621;SDS011;34421;48.944;9.460;2022-08-03T00:13:49;1.92;;;1.13;;
48621;SDS011;34421;48.944;9.460;2022-08-03T00:16:14;1.77;;;1.17;;
48621;SDS011;34421;48.944;9.460;2022-08-03T00:18:40;2.65;;;1.40;;
48621;SDS011;34421;48.944;9.460;2022-08-03T00:21:06;2.22;;;1.15;;
48621;SDS011;34421;48.944;9.460;2022-08-03T00:23:32;2.30;;;1.13;;
48621;SDS011;34421;48.944;9.460;2022-08-03T00:25:58;1.90;;;1.20;;
48621;SDS011;34421;48.944;9.460;2022-08-03T00:28:23;3.55;;;1.55;;
48621;SDS011;34421;48.944;9.460;2022-08-03T00:30:48;3.20;;;1.40;;
48621;SDS011;34421;48.944;9.460;2022-08-03T00:33:14;3.35;;;1.52;;
48621;SDS011;34421;48.944;9.460;2022-08-03T00:35:40;2.05;;;1.25;;
48621;SDS011;34421;48.944;9.460;2022-08-03T00:38:05;1.98;;;1.30;;
48621;SDS011;34421;48.944;9.460;2022-08-03T00:40:31;1.52;;;0.98;;
48621;SDS011;34421;48.944;9.460;2022-08-03T00:42:57;4.00;;;1.30;;
48621;SDS011;34421;48.944;9.460;2022-08-03T00:45:25;2.85;;;1.40;;
48621;SDS011;34421;48.944;9.460;2022-08-03T00:47:53;2.95;;;1.30;;
48621;SDS011;34421;48.944;9.460;2022-08-03T00:50:19;2.10;;;1.17;;
48621;SDS011;34421;48.944;9.460;2022-08-03T00:52:51;1.85;;;1.08;;
48621;SDS011;34421;48.944;9.460;2022-08-03T00:55:18;2.10;;;1.38;;
48621;SDS011;34421;48.944;9.460;2022-08-03T00:57:43;2.33;;;1.42;;
48621;SDS011;34421;48.944;9.460;2022-08-03T01:00:10;2.30;;;1.20;;
48621;SDS011;34421;48.944;9.460;2022-08-03T01:02:37;2.78;;;1.38;;
48621;SDS011;34421;48.944;9.460;2022-08-03T01:05:03;1.75;;;1.20;;
48621;SDS011;34421;48.944;9.460;2022-08-03T01:10:31;2.42;;;1.10;;
48621;SDS011;34421;48.944;9.460;2022-08-03T01:19:08;2.95;;;1.33;;
48621;SDS011;34421;48.944;9.460;2022-08-03T01:21:57;2.47;;;1.00;;
48621;SDS011;34421;48.944;9.460;2022-08-03T01:27:07;2.70;;;1.20;;
48621;SDS011;34421;48.944;9.460;2022-08-03T01:35:03;1.70;;;0.90;;
48621;SDS011;34421;48.944;9.460;2022-08-03T01:37:38;1.92;;;1.10;;
48621;SDS011;34421;48.944;9.460;2022-08-03T01:40:08;1.97;;;1.07;;
48621;SDS011;34421;48.944;9.460;2022-08-03T01:42:37;2.15;;;1.30;;
48621;SDS011;34421;48.944;9.460;2022-08-03T01:45:05;2.17;;;1.25;;
48621;SDS011;34421;48.944;9.460;2022-08-03T01:47:33;2.00;;;1.20;;
48621;SDS011;34421;48.944;9.460;2022-08-03T01:50:00;2.30;;;1.35;;
48621;SDS011;34421;48.944;9.460;2022-08-03T01:52:27;2.22;;;1.15;;
48621;SDS011;34421;48.944;9.460;2022-08-03T01:54:54;1.77;;;1.17;;
48621;SDS011;34421;48.944;9.460;2022-08-03T01:57:20;1.85;;;0.98;;
48621;SDS011;34421;48.944;9.460;2022-08-03T01:59:48;2.20;;;1.17;;
48621;SDS011;34421;48.944;9.460;2022-08-03T02:02:16;2.30;;;1.40;;
48621;SDS011;34421;48.944;9.460;2022-08-03T02:04:42;3.53;;;1.30;;
48621;SDS011;34421;48.944;9.460;2022-08-03T02:07:09;1.67;;;1.02;;
48621;SDS011;34421;48.944;9.460;2022-08-03T02:09:36;2.30;;;1.40;;
48621;SDS011;34421;48.944;9.460;2022-08-03T02:12:06;2.08;;;1.02;;
48621;SDS011;34421;48.944;9.460;2022-08-03T02:14:33;1.58;;;0.90;;
48621;SDS011;34421;48.944;9.460;2022-08-03T02:16:59;2.17;;;1.10;;
48621;SDS011;34421;48.944;9.460;2022-08-03T02:19:25;2.25;;;1.10;;
48621;SDS011;34421;48.944;9.460;2022-08-03T02:21:51;1.55;;;0.98;;
48621;SDS011;34421;48.944;9.460;2022-08-03T02:24:17;2.17;;;1.25;;
48621;SDS011;34421;48.944;9.460;2022-08-03T02:26:43;1.25;;;0.95;;
48621;SDS011;34421;48.944;9.460;2022-08-03T02:29:19;2.47;;;1.20;;
48621;SDS011;34421;48.944;9.460;2022-08-03T02:31:47;2.47;;;1.17;;
48621;SDS011;34421;48.944;9.460;2022-08-03T02:34:14;2.78;;;1.45;;
48621;SDS011;34421;48.944;9.460;2022-08-03T02:36:41;2.03;;;1.30;;
48621;SDS011;34421;48.944;9.460;2022-08-03T02:39:10;2.00;;;1.20;;
48621;SDS011;34421;48.944;9.460;2022-08-03T02:41:44;2.53;;;1.70;;
48621;SDS011;34421;48.944;9.460;2022-08-03T02:44:13;2.58;;;0.95;;
48621;SDS011;34421;48.944;9.460;2022-08-03T02:46:43;1.60;;;1.00;;
48621;SDS011;34421;48.944;9.460;2022-08-03T02:49:11;2.35;;;1.23;;
48621;SDS011;34421;48.944;9.460;2022-08-03T02:51:40;1.80;;;1.02;;
48621;SDS011;34421;48.944;9.460;2022-08-03T02:54:07;2.25;;;1.10;;
48621;SDS011;34421;48.944;9.460;2022-08-03T02:56:34;2.40;;;1.10;;
48621;SDS011;34421;48.944;9.460;2022-08-03T02:59:01;2.50;;;1.33;;
48621;SDS011;34421;48.944;9.460;2022-08-03T03:01:27;1.98;;;1.15;;
48621;SDS011;34421;48.944;9.460;2022-08-03T03:03:55;2.00;;;1.40;;
48621;SDS011;34421;48.944;9.460;2022-08-03T03:06:21;1.52;;;1.00;;
48621;SDS011;34421;48.944;9.460;2022-08-03T03:08:49;2.78;;;1.40;;
48621;SDS011;34421;48.944;9.460;2022-08-03T03:11:16;2.80;;;1.33;;
48621;SDS011;34421;48.944;9.460;2022-08-03T03:13:44;2.05;;;1.30;;
48621;SDS011;34421;48.944;9.460;2022-08-03T03:16:11;2.28;;;1.33;;
48621;SDS011;34421;48.944;9.460;2022-08-03T03:18:38;1.90;;;1.10;;
48621;SDS011;34421;48.944;9.460;2022-08-03T03:21:04;2.17;;;1.05;;
48621;SDS011;34421;48.944;9.460;2022-08-03T03:23:32;2.33;;;1.33;;
48621;SDS011;34421;48.944;9.460;2022-08-03T03:26:00;2.38;;;1.20;;
48621;SDS011;34421;48.944;9.460;2022-08-03T03:28:26;1.30;;;1.00;;
48621;SDS011;34421;48.944;9.460;2022-08-03T03:30:52;1.73;;;1.10;;
48621;SDS011;34421;48.944;9.460;2022-08-03T03:33:18;2.45;;;1.35;;
48621;SDS011;34421;48.944;9.460;2022-08-03T03:35:43;2.25;;;1.25;;
48621;SDS011;34421;48.944;9.460;2022-08-03T03:38:10;2.22;;;1.08;;
48621;SDS011;34421;48.944;9.460;2022-08-03T03:40:39;2.03;;;1.05;;
48621;SDS011;34421;48.944;9.460;2022-08-03T03:43:06;1.92;;;1.10;;
48621;SDS011;34421;48.944;9.460;2022-08-03T03:45:33;2.08;;;1.25;;
48621;SDS011;34421;48.944;9.460;2022-08-03T03:48:00;1.88;;;1.13;;
48621;SDS011;34421;48.944;9.460;2022-08-03T03:50:30;2.53;;;1.30;;
48621;SDS011;34421;48.944;9.460;2022-08-03T03:52:56;2.45;;;1.27;;
48621;SDS011;34421;48.944;9.460;2022-08-03T03:55:22;1.92;;;1.20;;
48621;SDS011;34421;48.944;9.460;2022-08-03T03:57:48;1.25;;;0.90;;
48621;SDS011;34421;48.944;9.460;2022-08-03T04:00:13;2.05;;;1.23;;
48621;SDS011;34421;48.944;9.460;2022-08-03T04:02:40;1.65;;;1.00;;
48621;SDS011;34421;48.944;9.460;2022-08-03T04:05:06;2.58;;;1.35;;
48621;SDS011;34421;48.944;9.460;2022-08-03T04:08:00;2.35;;;1.13;;
48621;SDS011;34421;48.944;9.460;2022-08-03T04:11:01;2.03;;;1.15;;
48621;SDS011;34421;48.944;9.460;2022-08-03T04:13:30;1.55;;;0.93;;
48621;SDS011;34421;48.944;9.460;2022-08-03T04:15:59;1.88;;;1.02;;
48621;SDS011;34421;48.944;9.460;2022-08-03T04:18:26;2.03;;;1.08;;
48621;SDS011;34421;48.944;9.460;2022-08-03T04:20:53;1.52;;;0.90;;
48621;SDS011;34421;48.944;9.460;2022-08-03T04:23:21;1.55;;;1.02;;
48621;SDS011;34421;48.944;9.460;2022-08-03T04:25:49;2.10;;;1.05;;
48621;SDS011;34421;48.944;9.460;2022-08-03T04:28:17;1.92;;;1.08;;
48621;SDS011;34421;48.944;9.460;2022-08-03T04:30:44;2.03;;;1.25;;
48621;SDS011;34421;48.944;9.460;2022-08-03T04:33:12;1.90;;;0.88;;
48621;SDS011;34421;48.944;9.460;2022-08-03T04:35:40;2.22;;;1.33;;
48621;SDS011;34421;48.944;9.460;2022-08-03T04:38:08;1.73;;;1.08;;
48621;SDS011;34421;48.944;9.460;2022-08-03T04:40:38;2.50;;;1.13;;
48621;SDS011;34421;48.944;9.460;2022-08-03T04:43:06;2.42;;;1.20;;
48621;SDS011;34421;48.944;9.460;2022-08-03T04:45:33;1.50;;;0.77;;
48621;SDS011;34421;48.944;9.460;2022-08-03T04:48:00;2.45;;;1.30;;
48621;SDS011;34421;48.944;9.460;2022-08-03T04:50:26;2.78;;;1.38;;
48621;SDS011;34421;48.944;9.460;2022-08-03T04:52:52;2.00;;;1.13;;
48621;SDS011;34421;48.944;9.460;2022-08-03T04:55:30;2.08;;;1.33;;
48621;SDS011;34421;48.944;9.460;2022-08-03T04:57:57;2.20;;;1.30;;
48621;SDS011;34421;48.944;9.460;2022-08-03T05:00:23;2.47;;;1.42;;
48621;SDS011;34421;48.944;9.460;2022-08-03T05:02:49;2.05;;;1.20;;
48621;SDS011;34421;48.944;9.460;2022-08-03T05:05:15;1.60;;;1.15;;
48621;SDS011;34421;48.944;9.460;2022-08-03T05:07:41;1.40;;;0.85;;
48621;SDS011;34421;48.944;9.460;2022-08-03T05:10:09;2.88;;;1.42;;
48621;SDS011;34421;48.944;9.460;2022-08-03T05:12:35;2.55;;;1.45;;
48621;SDS011;34421;48.944;9.460;2022-08-03T05:15:01;2.33;;;1.35;;
48621;SDS011;34421;48.944;9.460;2022-08-03T05:17:28;2.53;;;1.55;;
48621;SDS011;34421;48.944;9.460;2022-08-03T05:19:53;1.67;;;0.80;;
48621;SDS011;34421;48.944;9.460;2022-08-03T05:22:20;2.33;;;1.48;;
48621;SDS011;34421;48.944;9.460;2022-08-03T05:24:45;4.35;;;1.45;;
48621;SDS011;34421;48.944;9.460;2022-08-03T05:27:11;3.15;;;1.75;;
48621;SDS011;34421;48.944;9.460;2022-08-03T05:29:41;2.10;;;1.23;;
48621;SDS011;34421;48.944;9.460;2022-08-03T05:32:07;2.28;;;1.23;;
48621;SDS011;34421;48.944;9.460;2022-08-03T05:34:32;1.63;;;1.10;;
48621;SDS011;34421;48.944;9.460;2022-08-03T05:36:58;2.40;;;1.30;;
48621;SDS011;34421;48.944;9.460;2022-08-03T05:39:23;2.03;;;1.15;;
48621;SDS011;34421;48.944;9.460;2022-08-03T05:41:49;1.95;;;1.23;;
48621;SDS011;34421;48.944;9.460;2022-08-03T05:44:14;2.17;;;1.10;;
48621;SDS011;34421;48.944;9.460;2022-08-03T05:46:39;2.03;;;1.10;;
48621;SDS011;34421;48.944;9.460;2022-08-03T05:49:05;2.10;;;1.20;;
48621;SDS011;34421;48.944;9.460;2022-08-03T05:51:30;1.98;;;1.25;;
48621;SDS011;34421;48.944;9.460;2022-08-03T05:53:55;2.80;;;1.33;;
48621;SDS011;34421;48.944;9.460;2022-08-03T05:56:21;3.13;;;1.67;;
48621;SDS011;34421;48.944;9.460;2022-08-03T05:58:50;1.67;;;1.15;;
48621;SDS011;34421;48.944;9.460;2022-08-03T06:01:17;2.38;;;1.45;;
48621;SDS011;34421;48.944;9.460;2022-08-03T06:03:45;2.65;;;1.35;;
48621;SDS011;34421;48.944;9.460;2022-08-03T06:06:11;2.45;;;1.60;;
48621;SDS011;34421;48.944;9.460;2022-08-03T06:08:38;2.67;;;1.65;;
48621;SDS011;34421;48.944;9.460;2022-08-03T06:11:04;3.85;;;1.52;;
48621;SDS011;34421;48.944;9.460;2022-08-03T06:13:29;2.92;;;1.50;;
48621;SDS011;34421;48.944;9.460;2022-08-03T06:15:55;1.92;;;1.30;;
48621;SDS011;34421;48.944;9.460;2022-08-03T06:18:20;2.03;;;1.27;;
48621;SDS011;34421;48.944;9.460;2022-08-03T06:20:45;1.77;;;1.10;;
48621;SDS011;34421;48.944;9.460;2022-08-03T06:23:11;1.73;;;1.27;;
48621;SDS011;34421;48.944;9.460;2022-08-03T06:25:36;3.10;;;1.80;;
48621;SDS011;34421;48.944;9.460;2022-08-03T06:28:02;2.58;;;1.40;;
48621;SDS011;34421;48.944;9.460;2022-08-03T06:30:29;2.13;;;1.27;;
48621;SDS011;34421;48.944;9.460;2022-08-03T06:32:54;2.22;;;1.40;;
48621;SDS011;34421;48.944;9.460;2022-08-03T06:35:20;3.35;;;1.42;;
48621;SDS011;34421;48.944;9.460;2022-08-03T06:37:46;2.80;;;1.50;;
48621;SDS011;34421;48.944;9.460;2022-08-03T06:40:14;3.60;;;1.70;;
48621;SDS011;34421;48.944;9.460;2022-08-03T06:42:44;1.83;;;1.20;;
48621;SDS011;34421;48.944;9.460;2022-08-03T06:45:11;4.30;;;1.45;;
48621;SDS011;34421;48.944;9.460;2022-08-03T06:47:37;1.90;;;1.30;;
48621;SDS011;34421;48.944;9.460;2022-08-03T06:50:04;4.43;;;1.38;;
48621;SDS011;34421;48.944;9.460;2022-08-03T06:52:31;1.80;;;1.20;;
48621;SDS011;34421;48.944;9.460;2022-08-03T06:54:56;2.05;;;1.10;;
48621;SDS011;34421;48.944;9.460;2022-08-03T06:57:22;1.58;;;1.00;;
48621;SDS011;34421;48.944;9.460;2022-08-03T06:59:47;1.60;;;1.17;;
48621;SDS011;34421;48.944;9.460;2022-08-03T07:02:12;2.80;;;1.23;;
48621;SDS011;34421;48.944;9.460;2022-08-03T07:04:38;2.47;;;1.40;;
48621;SDS011;34421;48.944;9.460;2022-08-03T07:07:03;3.28;;;1.35;;
48621;SDS011;34421;48.944;9.460;2022-08-03T07:09:29;2.38;;;1.20;;
48621;SDS011;34421;48.944;9.460;2022-08-03T07:11:54;3.13;;;1.20;;
48621;SDS011;34421;48.944;9.460;2022-08-03T07:14:20;2.38;;;1.27;;
48621;SDS011;34421;48.944;9.460;2022-08-03T07:16:47;3.03;;;1.38;;
48621;SDS011;34421;48.944;9.460;2022-08-03T07:19:13;2.03;;;1.05;;
48621;SDS011;34421;48.944;9.460;2022-08-03T07:21:38;2.08;;;1.10;;
48621;SDS011;34421;48.944;9.460;2022-08-03T07:24:03;1.83;;;1.20;;
48621;SDS011;34421;48.944;9.460;2022-08-03T07:26:29;2.92;;;1.10;;
48621;SDS011;34421;48.944;9.460;2022-08-03T07:28:54;1.73;;;0.90;;
48621;SDS011;34421;48.944;9.460;2022-08-03T07:31:20;1.88;;;0.90;;
48621;SDS011;34421;48.944;9.460;2022-08-03T07:33:45;1.45;;;0.80;;
48621;SDS011;34421;48.944;9.460;2022-08-03T07:36:10;3.03;;;1.23;;
48621;SDS011;34421;48.944;9.460;2022-08-03T07:38:36;2.95;;;1.10;;
48621;SDS011;34421;48.944;9.460;2022-08-03T07:41:02;1.15;;;0.70;;
48621;SDS011;34421;48.944;9.460;2022-08-03T07:43:27;1.35;;;0.88;;
48621;SDS011;34421;48.944;9.460;2022-08-03T07:45:53;1.60;;;0.80;;
48621;SDS011;34421;48.944;9.460;2022-08-03T07:48:18;1.15;;;0.80;;
48621;SDS011;34421;48.944;9.460;2022-08-03T07:50:44;1.65;;;0.70;;
48621;SDS011;34421;48.944;9.460;2022-08-03T07:53:10;1.40;;;0.77;;
48621;SDS011;34421;48.944;9.460;2022-08-03T07:55:35;1.38;;;0.98;;
48621;SDS011;34421;48.944;9.460;2022-08-03T07:58:01;2.13;;;0.98;;
48621;SDS011;34421;48.944;9.460;2022-08-03T08:00:33;1.23;;;0.80;;
48621;SDS011;34421;48.944;9.460;2022-08-03T08:03:00;1.08;;;0.75;;
48621;SDS011;34421;48.944;9.460;2022-08-03T08:05:25;1.52;;;0.77;;
48621;SDS011;34421;48.944;9.460;2022-08-03T08:07:52;1.77;;;0.90;;
48621;SDS011;34421;48.944;9.460;2022-08-03T08:10:17;1.90;;;0.77;;
48621;SDS011;34421;48.944;9.460;2022-08-03T08:12:43;2.03;;;0.90;;
48621;SDS011;34421;48.944;9.460;2022-08-03T08:15:08;1.20;;;0.60;;
48621;SDS011;34421;48.944;9.460;2022-08-03T08:17:44;1.45;;;0.80;;
48621;SDS011;34421;48.944;9.460;2022-08-03T08:20:16;1.38;;;0.70;;
48621;SDS011;34421;48.944;9.460;2022-08-03T08:22:43;1.20;;;0.60;;
48621;SDS011;34421;48.944;9.460;2022-08-03T08:25:08;1.95;;;0.80;;
48621;SDS011;34421;48.944;9.460;2022-08-03T08:27:39;1.02;;;0.52;;
48621;SDS011;34421;48.944;9.460;2022-08-03T08:30:08;0.80;;;0.50;;
48621;SDS011;34421;48.944;9.460;2022-08-03T08:32:34;0.55;;;0.40;;
48621;SDS011;34421;48.944;9.460;2022-08-03T08:35:01;1.08;;;0.40;;
48621;SDS011;34421;48.944;9.460;2022-08-03T08:37:27;1.52;;;0.60;;
48621;SDS011;34421;48.944;9.460;2022-08-03T08:39:54;0.93;;;0.50;;
48621;SDS011;34421;48.944;9.460;2022-08-03T08:42:20;0.70;;;0.50;;
48621;SDS011;34421;48.944;9.460;2022-08-03T08:44:45;0.70;;;0.40;;
48621;SDS011;34421;48.944;9.460;2022-08-03T08:47:11;0.98;;;0.40;;
48621;SDS011;34421;48.944;9.460;2022-08-03T08:49:37;1.00;;;0.50;;
48621;SDS011;34421;48.944;9.460;2022-08-03T08:52:05;1.58;;;0.40;;
48621;SDS011;34421;48.944;9.460;2022-08-03T08:54:32;1.50;;;0.60;;
48621;SDS011;34421;48.944;9.460;2022-08-03T08:57:01;0.90;;;0.30;;
48621;SDS011;34421;48.944;9.460;2022-08-03T08:59:28;0.75;;;0.47;;
48621;SDS011;34421;48.944;9.460;2022-08-03T09:01:58;1.02;;;0.50;;
48621;SDS011;34421;48.944;9.460;2022-08-03T09:04:24;0.93;;;0.40;;
48621;SDS011;34421;48.944;9.460;2022-08-03T09:06:50;0.85;;;0.50;;
48621;SDS011;34421;48.944;9.460;2022-08-03T09:09:16;1.67;;;0.60;;
48621;SDS011;34421;48.944;9.460;2022-08-03T09:11:42;0.73;;;0.43;;
48621;SDS011;34421;48.944;9.460;2022-08-03T09:14:08;1.20;;;0.40;;
48621;SDS011;34421;48.944;9.460;2022-08-03T09:16:34;0.63;;;0.40;;
48621;SDS011;34421;48.944;9.460;2022-08-03T09:19:09;0.88;;;0.40;;
48621;SDS011;34421;48.944;9.460;2022-08-03T09:21:36;1.00;;;0.40;;
48621;SDS011;34421;48.944;9.460;2022-08-03T09:24:02;1.00;;;0.52;;
48621;SDS011;34421;48.944;9.460;2022-08-03T09:26:30;0.70;;;0.40;;
48621;SDS011;34421;48.944;9.460;2022-08-03T09:31:38;0.93;;;0.50;;
48621;SDS011;34421;48.944;9.460;2022-08-03T09:34:05;0.70;;;0.40;;
48621;SDS011;34421;48.944;9.460;2022-08-03T09:36:33;1.08;;;0.60;;
48621;SDS011;34421;48.944;9.460;2022-08-03T09:39:05;0.70;;;0.47;;
48621;SDS011;34421;48.944;9.460;2022-08-03T09:41:38;0.55;;;0.38;;
48621;SDS011;34421;48.944;9.460;2022-08-03T09:44:06;0.82;;;0.50;;
48621;SDS011;34421;48.944;9.460;2022-08-03T09:46:46;1.85;;;0.60;;
48621;SDS011;34421;48.944;9.460;2022-08-03T09:49:15;1.35;;;0.63;;
48621;SDS011;34421;48.944;9.460;2022-08-03T09:51:42;1.02;;;0.50;;
48621;SDS011;34421;48.944;9.460;2022-08-03T09:54:07;1.30;;;0.65;;
48621;SDS011;34421;48.944;9.460;2022-08-03T09:56:43;0.90;;;0.57;;
48621;SDS011;34421;48.944;9.460;2022-08-03T09:59:11;0.90;;;0.45;;
48621;SDS011;34421;48.944;9.460;2022-08-03T10:01:37;0.80;;;0.45;;
48621;SDS011;34421;48.944;9.460;2022-08-03T10:04:09;1.30;;;0.70;;
48621;SDS011;34421;48.944;9.460;2022-08-03T10:06:36;1.15;;;0.47;;
48621;SDS011;34421;48.944;9.460;2022-08-03T10:11:31;1.20;;;0.60;;
48621;SDS011;34421;48.944;9.460;2022-08-03T10:13:58;0.68;;;0.50;;
48621;SDS011;34421;48.944;9.460;2022-08-03T10:16:23;1.02;;;0.60;;
48621;SDS011;34421;48.944;9.460;2022-08-03T10:18:49;1.05;;;0.50;;
48621;SDS011;34421;48.944;9.460;2022-08-03T10:21:15;0.88;;;0.50;;
48621;SDS011;34421;48.944;9.460;2022-08-03T10:23:43;0.82;;;0.40;;
48621;SDS011;34421;48.944;9.460;2022-08-03T10:26:10;1.25;;;0.60;;
48621;SDS011;34421;48.944;9.460;2022-08-03T10:28:41;1.08;;;0.40;;
48621;SDS011;34421;48.944;9.460;2022-08-03T10:31:12;0.85;;;0.40;;
48621;SDS011;34421;48.944;9.460;2022-08-03T10:33:41;1.10;;;0.70;;
48621;SDS011;34421;48.944;9.460;2022-08-03T10:36:08;1.27;;;0.60;;
48621;SDS011;34421;48.944;9.460;2022-08-03T10:38:48;0.85;;;0.43;;
48621;SDS011;34421;48.944;9.460;2022-08-03T10:41:18;1.05;;;0.50;;
48621;SDS011;34421;48.944;9.460;2022-08-03T10:44:00;3.08;;;0.73;;
48621;SDS011;34421;48.944;9.460;2022-08-03T10:46:26;1.20;;;0.63;;
48621;SDS011;34421;48.944;9.460;2022-08-03T10:48:52;0.90;;;0.50;;
48621;SDS011;34421;48.944;9.460;2022-08-03T10:51:20;1.10;;;0.60;;
48621;SDS011;34421;48.944;9.460;2022-08-03T10:53:47;1.42;;;0.60;;
48621;SDS011;34421;48.944;9.460;2022-08-03T10:59:15;1.52;;;0.68;;
48621;SDS011;34421;48.944;9.460;2022-08-03T11:02:01;1.10;;;0.60;;
48621;SDS011;34421;48.944;9.460;2022-08-03T11:04:27;1.80;;;0.70;;
48621;SDS011;34421;48.944;9.460;2022-08-03T11:09:41;1.10;;;0.55;;
48621;SDS011;34421;48.944;9.460;2022-08-03T11:12:22;1.30;;;0.60;;
48621;SDS011;34421;48.944;9.460;2022-08-03T11:14:48;1.17;;;0.55;;
48621;SDS011;34421;48.944;9.460;2022-08-03T11:17:14;1.17;;;0.60;;
48621;SDS011;34421;48.944;9.460;2022-08-03T11:19:46;0.70;;;0.40;;
48621;SDS011;34421;48.944;9.460;2022-08-03T11:22:13;1.08;;;0.55;;
48621;SDS011;34421;48.944;9.460;2022-08-03T11:43:05;1.58;;;0.60;;
48621;SDS011;34421;48.944;9.460;2022-08-03T11:46:07;0.68;;;0.50;;
48621;SDS011;34421;48.944;9.460;2022-08-03T11:48:46;0.68;;;0.47;;
48621;SDS011;34421;48.944;9.460;2022-08-03T11:51:21;0.82;;;0.50;;
48621;SDS011;34421;48.944;9.460;2022-08-03T11:53:50;1.83;;;0.63;;
48621;SDS011;34421;48.944;9.460;2022-08-03T11:56:46;1.05;;;0.60;;
48621;SDS011;34421;48.944;9.460;2022-08-03T11:59:12;0.90;;;0.50;;
48621;SDS011;34421;48.944;9.460;2022-08-03T12:01:37;1.52;;;0.50;;
48621;SDS011;34421;48.944;9.460;2022-08-03T12:04:04;0.68;;;0.40;;
48621;SDS011;34421;48.944;9.460;2022-08-03T12:06:30;0.65;;;0.40;;
48621;SDS011;34421;48.944;9.460;2022-08-03T12:09:16;0.98;;;0.60;;
48621;SDS011;34421;48.944;9.460;2022-08-03T12:11:41;1.20;;;0.40;;
48621;SDS011;34421;48.944;9.460;2022-08-03T12:14:06;1.30;;;0.50;;
48621;SDS011;34421;48.944;9.460;2022-08-03T12:16:32;1.25;;;0.60;;
48621;SDS011;34421;48.944;9.460;2022-08-03T12:19:01;0.93;;;0.50;;
48621;SDS011;34421;48.944;9.460;2022-08-03T12:21:29;0.60;;;0.40;;
48621;SDS011;34421;48.944;9.460;2022-08-03T12:23:58;0.82;;;0.50;;
48621;SDS011;34421;48.944;9.460;2022-08-03T12:26:25;0.45;;;0.45;;
48621;SDS011;34421;48.944;9.460;2022-08-03T12:28:51;0.75;;;0.50;;
48621;SDS011;34421;48.944;9.460;2022-08-03T12:31:17;0.50;;;0.30;;
48621;SDS011;34421;48.944;9.460;2022-08-03T12:34:15;0.98;;;0.52;;
48621;SDS011;34421;48.944;9.460;2022-08-03T12:36:34;1.40;;;0.80;;
48621;SDS011;34421;48.944;9.460;2022-08-03T12:39:03;0.93;;;0.50;;
48621;SDS011;34421;48.944;9.460;2022-08-03T12:41:33;0.93;;;0.43;;
48621;SDS011;34421;48.944;9.460;2022-08-03T12:44:05;0.70;;;0.40;;
48621;SDS011;34421;48.944;9.460;2022-08-03T12:46:39;0.95;;;0.47;;
48621;SDS011;34421;48.944;9.460;2022-08-03T12:49:09;0.60;;;0.40;;
48621;SDS011;34421;48.944;9.460;2022-08-03T12:51:54;0.70;;;0.40;;
48621;SDS011;34421;48.944;9.460;2022-08-03T12:54:22;0.73;;;0.40;;
48621;SDS011;34421;48.944;9.460;2022-08-03T12:59:30;0.55;;;0.40;;
48621;SDS011;34421;48.944;9.460;2022-08-03T13:01:57;0.63;;;0.40;;
48621;SDS011;34421;48.944;9.460;2022-08-03T13:04:30;1.10;;;0.50;;
48621;SDS011;34421;48.944;9.460;2022-08-03T13:09:25;0.73;;;0.40;;
48621;SDS011;34421;48.944;9.460;2022-08-03T13:12:04;0.73;;;0.45;;
48621;SDS011;34421;48.944;9.460;2022-08-03T13:14:31;0.73;;;0.40;;
48621;SDS011;34421;48.944;9.460;2022-08-03T13:16:56;1.08;;;0.60;;
48621;SDS011;34421;48.944;9.460;2022-08-03T13:19:22;0.82;;;0.50;;
48621;SDS011;34421;48.944;9.460;2022-08-03T13:21:47;1.45;;;0.60;;
48621;SDS011;34421;48.944;9.460;2022-08-03T13:24:13;0.85;;;0.47;;
48621;SDS011;34421;48.944;9.460;2022-08-03T13:26:39;0.60;;;0.40;;
48621;SDS011;34421;48.944;9.460;2022-08-03T13:29:07;1.00;;;0.47;;
48621;SDS011;34421;48.944;9.460;2022-08-03T13:31:32;1.20;;;0.50;;
48621;SDS011;34421;48.944;9.460;2022-08-03T13:33:58;0.70;;;0.40;;
48621;SDS011;34421;48.944;9.460;2022-08-03T13:36:23;0.73;;;0.40;;
48621;SDS011;34421;48.944;9.460;2022-08-03T13:38:49;1.40;;;0.60;;
48621;SDS011;34421;48.944;9.460;2022-08-03T13:41:14;1.55;;;0.60;;
48621;SDS011;34421;48.944;9.460;2022-08-03T13:43:39;0.70;;;0.40;;
48621;SDS011;34421;48.944;9.460;2022-08-03T13:46:05;1.02;;;0.50;;
48621;SDS011;34421;48.944;9.460;2022-08-03T13:48:30;0.50;;;0.43;;
48621;SDS011;34421;48.944;9.460;2022-08-03T13:50:55;0.73;;;0.50;;
48621;SDS011;34421;48.944;9.460;2022-08-03T13:53:21;1.08;;;0.50;;
48621;SDS011;34421;48.944;9.460;2022-08-03T13:55:46;0.40;;;0.30;;
48621;SDS011;34421;48.944;9.460;2022-08-03T13:58:11;1.10;;;0.57;;
48621;SDS011;34421;48.944;9.460;2022-08-03T14:00:37;1.00;;;0.60;;
48621;SDS011;34421;48.944;9.460;2022-08-03T14:03:03;1.20;;;0.40;;
48621;SDS011;34421;48.944;9.460;2022-08-03T14:05:29;1.60;;;0.50;;
48621;SDS011;34421;48.944;9.460;2022-08-03T14:07:55;0.70;;;0.40;;
48621;SDS011;34421;48.944;9.460;2022-08-03T14:10:21;0.90;;;0.40;;
48621;SDS011;34421;48.944;9.460;2022-08-03T14:12:46;0.90;;;0.52;;
48621;SDS011;34421;48.944;9.460;2022-08-03T14:15:12;0.50;;;0.30;;
48621;SDS011;34421;48.944;9.460;2022-08-03T14:17:38;2.03;;;0.70;;
48621;SDS011;34421;48.944;9.460;2022-08-03T14:20:05;2.67;;;0.77;;
48621;SDS011;34421;48.944;9.460;2022-08-03T14:22:31;1.60;;;0.70;;
48621;SDS011;34421;48.944;9.460;2022-08-03T14:24:57;0.93;;;0.60;;
48621;SDS011;34421;48.944;9.460;2022-08-03T14:27:22;0.98;;;0.50;;
48621;SDS011;34421;48.944;9.460;2022-08-03T14:29:47;1.40;;;0.70;;
48621;SDS011;34421;48.944;9.460;2022-08-03T14:32:13;0.75;;;0.50;;
48621;SDS011;34421;48.944;9.460;2022-08-03T14:34:38;1.13;;;0.60;;
48621;SDS011;34421;48.944;9.460;2022-08-03T14:37:04;1.10;;;0.60;;
48621;SDS011;34421;48.944;9.460;2022-08-03T14:39:29;1.00;;;0.55;;
48621;SDS011;34421;48.944;9.460;2022-08-03T14:41:55;0.70;;;0.50;;
48621;SDS011;34421;48.944;9.460;2022-08-03T14:44:20;0.70;;;0.40;;
48621;SDS011;34421;48.944;9.460;2022-08-03T14:46:45;0.80;;;0.50;;
48621;SDS011;34421;48.944;9.460;2022-08-03T14:49:11;0.63;;;0.50;;
48621;SDS011;34421;48.944;9.460;2022-08-03T14:51:36;0.63;;;0.40;;
48621;SDS011;34421;48.944;9.460;2022-08-03T14:54:01;0.90;;;0.60;;
48621;SDS011;34421;48.944;9.460;2022-08-03T14:56:27;1.10;;;0.60;;
48621;SDS011;34421;48.944;9.460;2022-08-03T14:58:52;0.93;;;0.57;;
48621;SDS011;34421;48.944;9.460;2022-08-03T15:01:17;1.00;;;0.50;;
48621;SDS011;34421;48.944;9.460;2022-08-03T15:03:42;0.95;;;0.60;;
48621;SDS011;34421;48.944;9.460;2022-08-03T15:06:10;1.35;;;0.75;;
48621;SDS011;34421;48.944;9.460;2022-08-03T15:08:36;1.38;;;0.60;;
48621;SDS011;34421;48.944;9.460;2022-08-03T15:11:01;0.93;;;0.50;;
48621;SDS011;34421;48.944;9.460;2022-08-03T15:13:26;1.15;;;0.70;;
48621;SDS011;34421;48.944;9.460;2022-08-03T15:15:52;0.65;;;0.50;;
48621;SDS011;34421;48.944;9.460;2022-08-03T15:18:18;1.50;;;0.68;;
48621;SDS011;34421;48.944;9.460;2022-08-03T15:20:44;0.77;;;0.50;;
48621;SDS011;34421;48.944;9.460;2022-08-03T15:23:09;1.67;;;0.85;;
48621;SDS011;34421;48.944;9.460;2022-08-03T15:25:35;1.42;;;0.60;;
48621;SDS011;34421;48.944;9.460;2022-08-03T15:28:00;0.45;;;0.35;;
48621;SDS011;34421;48.944;9.460;2022-08-03T15:30:26;0.47;;;0.40;;
48621;SDS011;34421;48.944;9.460;2022-08-03T15:32:51;1.08;;;0.40;;
48621;SDS011;34421;48.944;9.460;2022-08-03T15:35:16;0.57;;;0.40;;
48621;SDS011;34421;48.944;9.460;2022-08-03T15:37:42;0.73;;;0.50;;
48621;SDS011;34421;48.944;9.460;2022-08-03T15:40:07;1.27;;;0.60;;
48621;SDS011;34421;48.944;9.460;2022-08-03T15:42:33;1.08;;;0.50;;